Bauerfield Efate, Vanuatu
Current Conditions -  °F | °C
As of 12:00 AM on Tuesday 25 Nov 2014 (Local Time) from NVVV Reporting Station
Scattered Clouds Scattered Clouds  
Wind Chill: 73°   Ceiling: Unl
Heat Index: 73°   Visibility: 6mi
Dew Point: 70°   Wind: 8mph
Humidity: 88%   Direction: 70°ENE
Pressure: 29.88"   Gusts: NA
Location:  17.7°S, 168.3°E
Report Text: NVVV 241300Z 07007KT 9999 SCT020 23/21 Q1012 RMK NIL
Loading
Personal Weather Stations






























Interactive Weather Map New forecast layout! Learn more

10-Day Weather Forecast

Advertisements
Track Severe Weather on mobile